Newfane, New York
Current Conditions -  °F | °C
As of 10:02 AM on Thursday 30 Oct 2014 (Local Time) from KIAG Reporting Station
Broken Clouds Broken Clouds  
Wind Chill: 40°   Ceiling: 2700
Heat Index: 45°   Visibility: 10mi
Dew Point: 38°   Wind: 10mph
Humidity: 76%   Direction: 290°WNW
Pressure: 30.08"   Gusts: NA
Location:  43.29°N, 78.71°W
Report Text: KIAG 301402Z 29009KT 10SM SCT014 BKN027 BKN240 07/03 A3008 RMK AO2 T00720033
Loading
Personal Weather Stations






























Interactive Weather Map
Tropical Storm Tracking
New forecast layout! Learn more

10-Day Weather Forecast

Advertisements
Track Severe Weather on mobile